Time;durP1;ratioP1;P1;durP2;ratioP2;P2;SDS_P1;SDS_P2;PMS_P1;PMS_P2;Temp;Humidity;BMP_temperature;BMP_pressure;BME280_temperature;BME280_humidity;BME280_pressure;Samples;Min_cycle;Max_cycle;Signal;HPM_P1;HPM_P2
2022/11/02 00:00:54;;;;;;;10.93;5.43;;;18.50;99.90;;;;;;5072849;28;20063;-79
2022/11/02 00:03:22;;;;;;;10.88;5.85;;;18.50;99.90;;;;;;5072669;28;20032;-80
2022/11/02 00:05:49;;;;;;;10.80;5.85;;;18.50;99.90;;;;;;5072521;28;20070;-79
2022/11/02 00:08:15;;;;;;;11.27;5.90;;;18.50;99.90;;;;;;5089839;28;20495;-79
2022/11/02 00:10:41;;;;;;;9.88;5.45;;;18.50;99.90;;;;;;5089809;28;20028;-80
2022/11/02 00:13:07;;;;;;;11.35;5.45;;;18.50;99.90;;;;;;5089335;28;20515;-79
2022/11/02 00:15:35;;;;;;;12.53;5.30;;;18.50;99.90;;;;;;5072526;28;20142;-81
2022/11/02 00:18:19;;;;;;;9.05;5.07;;;18.50;99.90;;;;;;5089604;28;20097;-80
2022/11/02 00:20:45;;;;;;;12.13;5.55;;;18.60;99.90;;;;;;5085306;28;20535;-77
2022/11/02 00:23:13;;;;;;;8.00;4.95;;;18.50;99.90;;;;;;5051857;28;20020;-78
2022/11/02 00:25:42;;;;;;;9.60;5.22;;;18.60;99.90;;;;;;5051841;28;20036;-81
2022/11/02 00:28:09;;;;;;;9.02;5.20;;;18.60;99.90;;;;;;5050365;28;20021;-80
2022/11/02 00:30:36;;;;;;;8.68;4.68;;;18.50;99.90;;;;;;5052926;28;20036;-80
2022/11/02 00:33:02;;;;;;;9.65;4.68;;;18.50;99.90;;;;;;5052041;28;20040;-79
2022/11/02 00:35:28;;;;;;;8.45;4.63;;;18.60;99.90;;;;;;5051616;28;20495;-79
2022/11/02 00:37:55;;;;;;;10.57;4.15;;;18.60;99.90;;;;;;5050718;28;20123;-80
2022/11/02 00:40:38;;;;;;;7.50;4.38;;;18.60;99.90;;;;;;5052030;28;20051;-79
2022/11/02 00:43:05;;;;;;;7.32;4.35;;;18.70;99.90;;;;;;5051576;28;20033;-79
2022/11/02 00:45:32;;;;;;;14.98;4.78;;;18.60;99.90;;;;;;5050032;28;20091;-80
2022/11/02 00:47:58;;;;;;;;;;;18.70;99.90;;;;;;5052276;28;20170;-80
2022/11/02 00:50:24;;;;;;;11.13;4.28;;;18.60;99.90;;;;;;5051836;28;19980;-81
2022/11/02 00:52:50;;;;;;;10.32;4.43;;;18.70;99.90;;;;;;5052285;28;20415;-79
2022/11/02 00:55:16;;;;;;;9.70;4.43;;;18.70;99.90;;;;;;5051528;28;20036;-79
2022/11/02 00:57:46;;;;;;;11.50;4.60;;;18.70;99.90;;;;;;5049497;28;20278;-80
2022/11/02 01:00:13;;;;;;;7.50;4.13;;;18.70;99.90;;;;;;5054159;28;20055;-77
2022/11/02 01:02:45;;;;;;;;;;;18.80;99.90;;;;;;5055359;28;20035;-79
2022/11/02 01:05:11;;;;;;;10.15;4.65;;;18.70;99.90;;;;;;5054344;28;19911;-80
2022/11/02 01:07:38;;;;;;;7.50;4.05;;;18.70;99.90;;;;;;5054229;28;20058;-80
2022/11/02 01:10:07;;;;;;;7.43;4.07;;;18.70;99.90;;;;;;5052752;28;20025;-79
2022/11/02 01:12:35;;;;;;;9.30;4.35;;;18.70;99.90;;;;;;5054417;28;20145;-80
2022/11/02 01:15:02;;;;;;;9.20;4.28;;;18.60;99.90;;;;;;5054347;28;20196;-79
2022/11/02 01:17:28;;;;;;;9.70;4.30;;;18.70;99.90;;;;;;5054611;28;20029;-81
2022/11/02 01:19:55;;;;;;;11.32;4.45;;;18.60;99.90;;;;;;5054355;28;20037;-79
2022/11/02 01:22:21;;;;;;;8.07;4.35;;;18.60;99.90;;;;;;5054269;28;20033;-80
2022/11/02 01:24:47;;;;;;;8.87;4.43;;;18.60;99.90;;;;;;5054158;28;20025;-79
2022/11/02 01:27:13;;;;;;;8.43;4.23;;;18.70;99.90;;;;;;5054134;28;20279;-79
2022/11/02 01:29:39;;;;;;;9.50;3.65;;;18.70;99.90;;;;;;5054010;28;20269;-80
2022/11/02 01:32:13;;;;;;;8.32;4.28;;;18.70;99.90;;;;;;5053851;28;20017;-79
2022/11/02 01:34:39;;;;;;;7.28;4.00;;;18.60;99.90;;;;;;5052115;28;20437;-80
2022/11/02 01:37:06;;;;;;;12.52;4.82;;;18.60;99.90;;;;;;5051967;28;20059;-78
2022/11/02 01:39:32;;;;;;;9.05;4.35;;;18.60;99.90;;;;;;5053387;28;20037;-79
2022/11/02 01:41:58;;;;;;;6.97;3.73;;;18.50;99.90;;;;;;5053265;28;20120;-78
2022/11/02 01:44:34;;;;;;;6.87;4.23;;;18.50;99.90;;;;;;5053467;28;20647;-77
2022/11/02 01:47:27;;;;;;;9.27;4.28;;;18.50;99.90;;;;;;5053449;28;20282;-79
2022/11/02 01:49:58;;;;;;;9.43;4.53;;;18.40;99.90;;;;;;5053558;28;20029;-80
2022/11/02 01:52:33;;;;;;;12.02;4.20;;;18.30;99.90;;;;;;5053503;28;20029;-79
2022/11/02 01:55:21;;;;;;;10.82;4.90;;;18.30;99.90;;;;;;5053373;28;20096;-78
2022/11/02 01:57:54;;;;;;;6.45;4.13;;;18.20;99.90;;;;;;5053987;28;20025;-79
2022/11/02 02:00:21;;;;;;;8.43;4.78;;;18.10;99.90;;;;;;5053602;28;20075;-79
2022/11/02 02:02:56;;;;;;;10.70;4.38;;;18.10;99.90;;;;;;5053422;28;20454;-78
2022/11/02 02:05:23;;;;;;;9.38;4.80;;;18.20;99.90;;;;;;5053363;28;20025;-80
2022/11/02 02:07:55;;;;;;;8.30;4.47;;;18.20;99.90;;;;;;5051514;28;20036;-79
2022/11/02 02:10:21;;;;;;;7.88;4.63;;;18.10;99.90;;;;;;5053444;28;20054;-79
2022/11/02 02:12:48;;;;;;;10.48;4.57;;;18.20;99.90;;;;;;5052835;28;20453;-79
2022/11/02 02:15:17;;;;;;;10.02;4.28;;;18.20;99.90;;;;;;5051366;28;20021;-80
2022/11/02 02:18:20;;;;;;;9.80;4.38;;;18.20;99.90;;;;;;5052840;28;20025;-80
2022/11/02 02:20:49;;;;;;;7.65;4.13;;;18.20;99.90;;;;;;5052998;28;20045;-79
2022/11/02 02:23:15;;;;;;;7.50;4.40;;;18.20;99.90;;;;;;5052872;28;20380;-80
2022/11/02 02:25:56;;;;;;;8.00;4.35;;;18.30;99.90;;;;;;5052495;28;20429;-81
2022/11/02 02:28:43;;;;;;;8.82;4.55;;;18.40;99.90;;;;;;5051331;28;20388;-80
2022/11/02 02:31:27;;;;;;;9.15;4.38;;;18.40;99.90;;;;;;5053165;28;20025;-81
2022/11/02 02:34:14;;;;;;;7.90;4.20;;;18.40;99.90;;;;;;5052374;28;20025;-81
2022/11/02 02:36:51;;;;;;;13.65;4.88;;;18.40;99.90;;;;;;5052264;28;20060;-80
2022/11/02 02:39:35;;;;;;;9.77;4.65;;;18.30;99.90;;;;;;5052123;28;20061;-81
2022/11/02 02:42:39;;;;;;;8.77;4.63;;;18.30;99.90;;;;;;5052528;28;20017;-79
2022/11/02 02:45:14;;;;;;;8.88;4.43;;;18.30;99.90;;;;;;5051880;28;20061;-79
2022/11/02 02:47:48;;;;;;;9.40;4.30;;;18.20;99.90;;;;;;5052391;28;20119;-79
2022/11/02 02:50:22;;;;;;;11.75;5.30;;;18.20;99.90;;;;;;5052424;28;20112;-80
2022/11/02 02:52:50;;;;;;;10.95;4.78;;;18.00;99.90;;;;;;5051126;28;20029;-80
2022/11/02 02:55:24;;;;;;;9.25;4.95;;;17.90;99.90;;;;;;5052189;28;20043;-79
2022/11/02 02:57:55;;;;;;;10.02;4.82;;;17.90;99.90;;;;;;5052268;28;20095;-80
2022/11/02 03:00:30;;;;;;;9.98;4.80;;;17.80;99.90;;;;;;5052216;28;20041;-79
2022/11/02 03:03:00;;;;;;;10.95;5.00;;;17.80;99.90;;;;;;5052110;28;20100;-80
2022/11/02 03:05:33;;;;;;;12.48;4.18;;;17.70;99.90;;;;;;5051856;28;20033;-80
2022/11/02 03:08:18;;;;;;;10.25;4.43;;;17.70;99.90;;;;;;5052121;28;20033;-79
2022/11/02 03:11:02;;;;;;;7.28;4.80;;;17.70;99.90;;;;;;5052143;28;20100;-80
2022/11/02 03:14:01;;;;;;;11.38;4.38;;;17.70;99.90;;;;;;5051942;28;20468;-79
2022/11/02 03:16:46;;;;;;;10.35;4.18;;;17.70;99.90;;;;;;5034961;28;20120;-79
2022/11/02 03:20:00;;;;;;;10.95;4.25;;;17.70;99.90;;;;;;5052154;28;20036;-80
2022/11/02 03:22:42;;;;;;;7.05;4.22;;;17.80;99.90;;;;;;5051355;28;20039;-80
2022/11/02 03:25:14;;;;;;;10.10;4.32;;;17.90;99.90;;;;;;5051813;28;20032;-79
2022/11/02 03:28:14;;;;;;;10.80;4.75;;;17.90;99.90;;;;;;5051628;28;20442;-80
2022/11/02 03:30:48;;;;;;;8.77;4.38;;;17.90;99.90;;;;;;5050109;28;20098;-76
2022/11/02 03:33:44;;;;;;;9.85;5.00;;;17.90;99.90;;;;;;5051618;28;20025;-79
2022/11/02 03:36:19;;;;;;;12.13;5.32;;;17.80;99.90;;;;;;5051302;28;20048;-81
2022/11/02 03:39:06;;;;;;;8.63;4.43;;;17.80;99.90;;;;;;5051171;28;20033;-79
2022/11/02 03:41:33;;;;;;;;;;;17.80;99.90;;;;;;5052038;28;20084;-81
2022/11/02 03:44:07;;;;;;;10.95;4.47;;;17.80;99.90;;;;;;5051356;28;19962;-79
2022/11/02 03:46:37;;;;;;;9.43;4.25;;;17.80;99.90;;;;;;5051157;28;20029;-79
2022/11/02 03:49:15;;;;;;;11.93;4.68;;;17.80;99.90;;;;;;5051120;28;20083;-81
2022/11/02 03:52:00;;;;;;;;;;;17.80;99.90;;;;;;5051624;28;20047;-79
2022/11/02 03:54:38;;;;;;;9.75;4.82;;;17.70;99.90;;;;;;5051268;28;20291;-79
2022/11/02 03:57:09;;;;;;;8.25;4.45;;;17.80;99.90;;;;;;5051664;28;20033;-80
2022/11/02 03:59:35;;;;;;;13.43;4.50;;;17.60;99.90;;;;;;5052285;28;20140;-79
2022/11/02 04:02:01;;;;;;;9.43;4.35;;;17.60;99.90;;;;;;5052578;28;20457;-80
2022/11/02 04:04:27;;;;;;;8.20;3.90;;;17.60;99.90;;;;;;5052075;28;20045;-79
2022/11/02 04:06:54;;;;;;;10.43;3.80;;;17.70;99.90;;;;;;5051597;28;20135;-79
2022/11/02 04:09:21;;;;;;;9.20;3.97;;;17.60;99.90;;;;;;5051910;28;20271;-79
2022/11/02 04:14:37;;;;;;;7.95;3.83;;;17.70;99.90;;;;;;5052464;28;20148;-79
2022/11/02 04:19:53;;;;;;;9.00;4.28;;;17.70;99.90;;;;;;5052330;28;20111;-80
2022/11/02 04:25:20;;;;;;;7.38;3.72;;;17.70;99.90;;;;;;5052354;28;20094;-80
2022/11/02 04:27:49;;;;;;;12.23;4.13;;;17.80;99.90;;;;;;5052321;28;20032;-80
2022/11/02 04:30:18;;;;;;;7.90;3.88;;;17.80;99.90;;;;;;5052349;28;20104;-80
2022/11/02 04:35:33;;;;;;;5.20;3.60;;;17.80;99.90;;;;;;5052345;28;20171;-79
2022/11/02 04:40:45;;;;;;;6.60;3.53;;;17.80;99.90;;;;;;5052455;28;20511;-80
2022/11/02 04:43:12;;;;;;;14.02;4.10;;;17.80;99.90;;;;;;5052131;28;20028;-80
2022/11/02 04:45:41;;;;;;;9.32;3.72;;;17.90;99.90;;;;;;5052883;28;20446;-78
2022/11/02 04:48:09;;;;;;;6.10;3.53;;;17.90;99.90;;;;;;5082616;28;20035;-78
2022/11/02 04:50:36;;;;;;;6.30;3.55;;;18.00;99.90;;;;;;5071030;28;20067;-80
2022/11/02 04:53:06;;;;;;;6.38;3.30;;;18.10;99.90;;;;;;5072546;28;20029;-80
2022/11/02 04:55:33;;;;;;;8.32;3.60;;;18.10;99.90;;;;;;5072117;28;20052;-79
2022/11/02 04:57:59;;;;;;;17.27;3.80;;;18.00;99.90;;;;;;5072259;28;20033;-79
2022/11/02 05:00:28;;;;;;;10.98;3.70;;;17.90;99.90;;;;;;5074264;28;20067;-77
2022/11/02 05:02:55;;;;;;;9.45;3.58;;;18.00;99.90;;;;;;5067109;28;20433;-77
2022/11/02 05:05:22;;;;;;;9.27;3.50;;;18.00;99.90;;;;;;5059549;28;20477;-77
2022/11/02 05:07:49;;;;;;;;;;;18.10;99.90;;;;;;5061942;28;20094;-76
2022/11/02 05:10:15;;;;;;;8.02;4.22;;;18.10;99.90;;;;;;5062226;28;20000;-78
2022/11/02 05:12:42;;;;;;;8.38;3.42;;;18.10;99.90;;;;;;5058932;28;20555;-77
2022/11/02 05:15:09;;;;;;;6.50;3.72;;;18.10;99.90;;;;;;5061618;28;20469;-77
2022/11/02 05:17:37;;;;;;;8.35;3.88;;;18.10;99.90;;;;;;5063177;28;20024;-77
2022/11/02 05:20:03;;;;;;;11.40;4.43;;;18.10;99.90;;;;;;5061637;28;20025;-76
2022/11/02 05:22:30;;;;;;;;;;;18.00;99.90;;;;;;5068315;28;20044;-78
2022/11/02 05:24:56;;;;;;;15.23;4.25;;;18.00;99.90;;;;;;5063603;28;20296;-81
2022/11/02 05:27:22;;;;;;;11.45;4.43;;;17.90;99.90;;;;;;5051445;28;20047;-80
2022/11/02 05:29:48;;;;;;;12.35;4.38;;;17.90;99.90;;;;;;5052917;28;20056;-79
2022/11/02 05:32:14;;;;;;;11.27;4.65;;;17.90;99.90;;;;;;5051843;28;20055;-81
2022/11/02 05:34:41;;;;;;;7.27;4.03;;;17.90;99.90;;;;;;5053250;28;20029;-80
2022/11/02 05:37:22;;;;;;;8.68;4.03;;;17.90;99.90;;;;;;5052538;28;20053;-80
2022/11/02 05:39:49;;;;;;;10.73;4.13;;;17.90;99.90;;;;;;5053259;28;20053;-80
2022/11/02 05:42:15;;;;;;;5.95;3.78;;;17.90;99.90;;;;;;5054577;28;20103;-81
2022/11/02 05:44:41;;;;;;;7.03;3.58;;;17.90;99.90;;;;;;5054170;28;20466;-81
2022/11/02 05:47:07;;;;;;;10.65;4.63;;;17.90;99.90;;;;;;5056065;28;20469;-82
2022/11/02 05:49:35;;;;;;;11.68;4.53;;;18.00;99.90;;;;;;5055963;28;20037;-82
2022/11/02 05:52:02;;;;;;;10.60;4.20;;;18.00;99.90;;;;;;5056106;28;20057;-83
2022/11/02 05:54:28;;;;;;;8.40;4.20;;;18.00;99.90;;;;;;5055535;28;20053;-82
2022/11/02 05:56:56;;;;;;;10.48;4.25;;;18.20;99.90;;;;;;5055684;28;20037;-85
2022/11/02 05:59:22;;;;;;;10.80;4.00;;;18.50;99.90;;;;;;5055549;28;20021;-83
2022/11/02 06:01:49;;;;;;;7.75;3.78;;;18.70;99.90;;;;;;5078932;28;20027;-84
2022/11/02 06:04:15;;;;;;;9.88;3.72;;;19.10;99.90;;;;;;5092980;28;20486;-83
2022/11/02 06:06:42;;;;;;;10.20;3.97;;;19.50;99.90;;;;;;5095256;28;20436;-79
2022/11/02 06:09:09;;;;;;;;;;;20.00;99.90;;;;;;5095541;28;20081;-78
2022/11/02 06:11:34;;;;;;;;;;;20.30;99.90;;;;;;5095388;28;19907;-78
2022/11/02 06:14:02;;;;;;;8.75;3.80;;;20.40;99.90;;;;;;5095085;28;19904;-77
2022/11/02 06:16:29;;;;;;;9.95;3.90;;;20.40;99.90;;;;;;5085556;28;20427;-76
2022/11/02 06:18:56;;;;;;;8.05;4.03;;;20.50;99.90;;;;;;5090464;28;20384;-76
2022/11/02 06:21:22;;;;;;;8.02;4.00;;;20.70;99.90;;;;;;5094516;28;20088;-76
2022/11/02 06:23:49;;;;;;;8.95;4.57;;;20.90;99.90;;;;;;5095156;28;20107;-76
2022/11/02 06:26:16;;;;;;;9.82;4.05;;;21.10;99.90;;;;;;5095088;28;20115;-77
2022/11/02 06:28:42;;;;;;;6.53;3.90;;;21.40;99.90;;;;;;5093093;28;20094;-77
2022/11/02 06:31:08;;;;;;;8.02;4.00;;;21.70;99.90;;;;;;5094903;28;20474;-77
2022/11/02 06:33:47;;;;;;;8.73;3.90;;;21.90;99.90;;;;;;5094588;28;20027;-76
2022/11/02 06:36:15;;;;;;;5.22;3.22;;;21.90;99.90;;;;;;5094527;28;20048;-76
2022/11/02 06:38:43;;;;;;;7.38;3.47;;;22.00;99.90;;;;;;5094859;28;20039;-77
2022/11/02 06:41:10;;;;;;;10.75;3.72;;;22.30;99.90;;;;;;5094579;28;20035;-78
2022/11/02 06:43:46;;;;;;;10.23;3.33;;;22.20;99.90;;;;;;5094369;28;20050;-78
2022/11/02 06:46:18;;;;;;;7.72;3.70;;;22.10;99.90;;;;;;5093999;28;20058;-78
2022/11/02 06:48:47;;;;;;;6.55;3.35;;;21.60;99.90;;;;;;5093835;28;20056;-78
2022/11/02 06:51:17;;;;;;;6.10;3.30;;;21.60;99.90;;;;;;5093532;28;20159;-77
2022/11/02 06:53:43;;;;;;;8.05;3.72;;;21.60;99.90;;;;;;5090896;28;20027;-74
2022/11/02 06:56:11;;;;;;;6.20;3.35;;;21.80;99.90;;;;;;5081530;28;20020;-77
2022/11/02 06:58:37;;;;;;;8.73;3.35;;;22.00;99.90;;;;;;5093626;28;20106;-80
2022/11/02 07:01:07;;;;;;;6.88;3.42;;;22.10;99.90;;;;;;5093386;28;20031;-81
2022/11/02 07:03:34;;;;;;;10.98;3.70;;;22.40;99.90;;;;;;5093600;28;20027;-80
2022/11/02 07:06:02;;;;;;;6.80;3.00;;;22.60;99.90;;;;;;5093385;28;20031;-81
2022/11/02 07:08:28;;;;;;;14.27;3.67;;;22.70;99.90;;;;;;5091894;28;20023;-81
2022/11/02 07:10:55;;;;;;;8.55;3.65;;;23.00;99.90;;;;;;5093604;28;20023;-84
2022/11/02 07:13:23;;;;;;;17.33;4.53;;;23.00;99.90;;;;;;5091834;28;20097;-88
2022/11/02 07:15:54;;;;;;;11.38;4.05;;;23.40;99.90;;;;;;5093712;28;20087;-87
2022/11/02 07:18:22;;;;;;;7.22;3.10;;;24.30;99.90;;;;;;5093133;28;20078;-79
2022/11/02 07:20:48;;;;;;;7.78;3.10;;;24.70;99.90;;;;;;5093196;28;20093;-75
2022/11/02 07:23:14;;;;;;;9.35;3.67;;;24.80;99.90;;;;;;5093511;28;20020;-75
2022/11/02 07:25:40;;;;;;;16.80;4.10;;;24.80;99.90;;;;;;5091916;28;20047;-74
2022/11/02 07:28:08;;;;;;;8.32;3.58;;;24.80;99.90;;;;;;5093135;28;20024;-76
2022/11/02 07:30:35;;;;;;;8.00;3.47;;;24.00;99.90;;;;;;5093103;28;20020;-77
2022/11/02 07:33:01;;;;;;;10.60;3.88;;;23.80;99.90;;;;;;5092905;28;20055;-75
2022/11/02 07:35:28;;;;;;;6.80;3.17;;;23.60;99.90;;;;;;5092692;28;20048;-76
2022/11/02 07:38:16;;;;;;;10.48;3.72;;;23.50;99.90;;;;;;5093008;28;20426;-77
2022/11/02 07:40:42;;;;;;;9.50;3.30;;;23.20;99.90;;;;;;5092669;28;20365;-72
2022/11/02 07:43:30;;;;;;;7.68;3.13;;;23.10;99.90;;;;;;5092908;28;20054;-71
2022/11/02 07:45:57;;;;;;;6.00;2.88;;;22.90;99.90;;;;;;5091959;28;20324;-72
2022/11/02 07:48:27;;;;;;;7.72;3.28;;;22.70;99.90;;;;;;5091722;28;20020;-72
2022/11/02 07:50:58;;;;;;;7.28;2.88;;;22.60;99.90;;;;;;5091121;28;20496;-71
2022/11/02 07:53:24;;;;;;;6.95;3.05;;;22.60;99.90;;;;;;5092981;28;20020;-72
2022/11/02 07:55:54;;;;;;;7.38;3.72;;;22.60;99.90;;;;;;5092638;28;20450;-70
2022/11/02 07:58:21;;;;;;;9.02;3.50;;;22.50;99.90;;;;;;5092964;28;20020;-70
2022/11/02 08:00:49;;;;;;;9.15;3.33;;;22.60;99.90;;;;;;5092547;28;20067;-71
2022/11/02 08:03:15;;;;;;;10.77;2.90;;;22.70;99.90;;;;;;5092656;28;20028;-71
2022/11/02 08:05:42;;;;;;;9.32;2.83;;;22.70;99.90;;;;;;5092493;28;20016;-71
2022/11/02 08:08:14;;;;;;;10.98;3.15;;;22.70;99.90;;;;;;5092489;28;20028;-71
2022/11/02 08:10:41;;;;;;;7.13;2.85;;;22.70;99.90;;;;;;5092387;28;20436;-74
2022/11/02 08:13:19;;;;;;;8.30;3.30;;;22.80;99.90;;;;;;5092484;28;20043;-74
2022/11/02 08:15:52;;;;;;;10.63;3.13;;;23.00;99.90;;;;;;5092817;28;20372;-75
2022/11/02 08:18:21;;;;;;;4.88;2.53;;;23.30;99.90;;;;;;5091485;28;20036;-76
2022/11/02 08:20:47;;;;;;;9.75;2.90;;;23.70;99.90;;;;;;5092367;28;20047;-75
2022/11/02 08:23:26;;;;;;;5.38;2.88;;;24.00;99.90;;;;;;5092352;28;20028;-75
2022/11/02 08:25:53;;;;;;;8.18;2.60;;;24.10;99.90;;;;;;5092599;28;20443;-75
2022/11/02 08:28:23;;;;;;;5.95;2.75;;;24.30;99.90;;;;;;5090424;28;20494;-71
2022/11/02 08:30:50;;;;;;;12.23;2.97;;;24.60;99.90;;;;;;5091896;28;20139;-74
2022/11/02 08:33:17;;;;;;;;;;;24.70;99.90;;;;;;5092837;28;20035;-74
2022/11/02 08:35:44;;;;;;;7.75;3.00;;;24.70;99.90;;;;;;5089053;28;19912;-75
2022/11/02 08:38:12;;;;;;;6.43;2.65;;;24.50;99.90;;;;;;5082311;28;20029;-74
2022/11/02 08:40:48;;;;;;;9.75;3.17;;;24.60;99.90;;;;;;5071445;28;20103;-75
2022/11/02 08:43:18;;;;;;;10.20;3.10;;;24.60;99.90;;;;;;5070968;28;20108;-74
2022/11/02 08:45:45;;;;;;;6.22;2.92;;;24.60;99.90;;;;;;5069825;28;20463;-75
2022/11/02 08:48:11;;;;;;;9.60;2.92;;;24.80;99.90;;;;;;5071382;28;20526;-75
2022/11/02 08:50:37;;;;;;;6.45;2.55;;;25.00;99.90;;;;;;5070892;28;20029;-74
2022/11/02 08:53:06;;;;;;;7.30;2.85;;;25.00;99.90;;;;;;5069567;28;20036;-74
2022/11/02 08:55:33;;;;;;;5.95;2.78;;;25.00;99.90;;;;;;5070666;28;20097;-75
2022/11/02 08:58:00;;;;;;;5.60;2.85;;;25.10;99.90;;;;;;5070899;28;20075;-74
2022/11/02 09:00:30;;;;;;;6.60;2.65;;;25.30;99.90;;;;;;5070996;28;20482;-74
2022/11/02 09:03:11;;;;;;;8.68;3.22;;;25.60;99.90;;;;;;5071384;28;20033;-74
2022/11/02 09:05:45;;;;;;;9.10;3.42;;;25.80;99.90;;;;;;5070921;28;20033;-74
2022/11/02 09:08:16;;;;;;;7.65;3.10;;;25.90;99.90;;;;;;5071411;28;20021;-74
2022/11/02 09:10:45;;;;;;;7.97;3.10;;;26.10;99.90;;;;;;5071367;28;20075;-73
2022/11/02 09:13:13;;;;;;;7.82;3.38;;;26.00;99.90;;;;;;5071209;28;20025;-75
2022/11/02 09:15:39;;;;;;;14.30;5.47;;;26.00;99.90;;;;;;5070674;28;20035;-76
2022/11/02 09:18:07;;;;;;;10.20;4.47;;;25.90;99.90;;;;;;5071632;28;20495;-75
2022/11/02 09:20:33;;;;;;;9.15;3.58;;;25.90;99.90;;;;;;5073905;28;20040;-75
2022/11/02 09:23:01;;;;;;;17.10;3.83;;;25.90;99.90;;;;;;5075382;28;20024;-74
2022/11/02 09:25:28;;;;;;;7.07;3.50;;;26.10;99.90;;;;;;5075723;28;20024;-73
2022/11/02 09:27:57;;;;;;;10.18;4.05;;;26.10;99.90;;;;;;5075362;28;20150;-76
2022/11/02 09:30:24;;;;;;;10.82;3.58;;;26.10;99.90;;;;;;5073584;28;20024;-75
2022/11/02 09:32:55;;;;;;;10.75;3.60;;;25.90;99.90;;;;;;5075697;28;20039;-74
2022/11/02 09:35:23;;;;;;;12.57;4.40;;;25.80;99.90;;;;;;5075466;28;20027;-74
2022/11/02 09:37:49;;;;;;;12.30;4.63;;;25.80;99.90;;;;;;5084434;28;20110;-74
2022/11/02 09:40:23;;;;;;;12.00;4.20;;;25.80;99.90;;;;;;5093446;28;20093;-75
2022/11/02 09:43:04;;;;;;;7.25;3.78;;;25.80;99.90;;;;;;5095691;28;20089;-74
2022/11/02 09:45:55;;;;;;;14.88;4.68;;;25.60;99.90;;;;;;5095238;28;20039;-74
2022/11/02 09:48:34;;;;;;;9.52;4.00;;;25.50;99.90;;;;;;5088734;28;20112;-74
2022/11/02 09:51:18;;;;;;;15.68;4.88;;;25.60;99.90;;;;;;5095192;28;20020;-75
2022/11/02 09:54:10;;;;;;;10.55;4.53;;;25.70;99.90;;;;;;5087772;28;20110;-80
2022/11/02 09:56:37;;;;;;;14.18;3.85;;;25.70;99.90;;;;;;5075255;28;20048;-74
2022/11/02 09:59:15;;;;;;;10.23;3.95;;;25.80;99.90;;;;;;5073525;28;20073;-76
2022/11/02 10:02:40;;;;;;;13.75;4.00;;;25.90;99.90;;;;;;5074512;28;20090;-75
2022/11/02 10:05:12;;;;;;;10.02;3.85;;;26.00;99.90;;;;;;5067061;28;20033;-76
2022/11/02 10:08:02;;;;;;;6.50;3.70;;;26.00;99.90;;;;;;5074821;28;20047;-79
2022/11/02 10:10:46;;;;;;;13.57;4.05;;;26.00;99.90;;;;;;5074503;28;20046;-75
2022/11/02 10:13:39;;;;;;;9.68;4.07;;;26.00;99.90;;;;;;5074923;28;20020;-76
2022/11/02 10:16:10;;;;;;;14.65;4.00;;;25.90;99.90;;;;;;5074943;28;20025;-76
2022/11/02 10:18:39;;;;;;;11.10;4.00;;;25.70;99.90;;;;;;5074558;28;20099;-76
2022/11/02 10:21:15;;;;;;;12.52;3.92;;;25.70;99.90;;;;;;5074519;28;20024;-75
2022/11/02 10:23:53;;;;;;;13.32;3.95;;;25.90;99.90;;;;;;5074856;28;20051;-73
2022/11/02 10:26:32;;;;;;;11.48;3.92;;;25.70;99.90;;;;;;5074463;28;20021;-72
2022/11/02 10:29:29;;;;;;;12.95;3.80;;;25.70;99.90;;;;;;5088421;28;20028;-73
2022/11/02 10:31:55;;;;;;;8.60;3.95;;;25.80;99.90;;;;;;5066146;28;20557;-74
2022/11/02 10:34:26;;;;;;;7.63;3.70;;;25.80;99.90;;;;;;5094241;28;20022;-74
2022/11/02 10:37:23;;;;;;;15.40;4.05;;;25.80;99.90;;;;;;5092302;28;20055;-74
2022/11/02 10:40:34;;;;;;;7.80;3.70;;;25.80;99.90;;;;;;5084358;28;20441;-75
2022/11/02 10:43:31;;;;;;;7.22;3.40;;;25.80;99.90;;;;;;4997398;28;20597;-73
2022/11/02 10:46:07;;;;;;;8.75;3.50;;;25.80;99.90;;;;;;4992407;28;20486;-74
2022/11/02 10:49:02;;;;;;;5.68;3.40;;;26.10;99.90;;;;;;4992355;28;20399;-74
2022/11/02 10:51:29;;;;;;;10.73;3.78;;;26.40;99.90;;;;;;4972689;28;20062;-73
2022/11/02 10:53:56;;;;;;;8.55;3.00;;;26.60;99.90;;;;;;4956350;28;20476;-73
2022/11/02 10:56:29;;;;;;;8.43;3.20;;;26.70;99.90;;;;;;4956272;28;20055;-75
2022/11/02 10:59:13;;;;;;;16.95;3.60;;;26.90;99.90;;;;;;4969814;28;20214;-75
2022/11/02 11:02:05;;;;;;;10.77;3.70;;;26.80;99.90;;;;;;4989713;28;20050;-76
2022/11/02 11:04:33;;;;;;;9.00;3.47;;;26.90;99.90;;;;;;4986731;28;20030;-73
2022/11/02 11:07:08;;;;;;;8.23;3.28;;;26.70;99.90;;;;;;4984340;28;20186;-74
2022/11/02 11:09:49;;;;;;;11.07;3.40;;;26.70;99.90;;;;;;4989679;28;20038;-74
2022/11/02 11:12:19;;;;;;;7.85;3.28;;;26.60;99.90;;;;;;4972342;28;20039;-75
2022/11/02 11:14:50;;;;;;;12.15;3.80;;;26.50;99.90;;;;;;4972350;28;20031;-75
2022/11/02 11:17:27;;;;;;;9.65;3.05;;;26.50;99.90;;;;;;4972754;28;20097;-76
2022/11/02 11:19:56;;;;;;;8.27;3.47;;;26.40;99.90;;;;;;5011356;28;20052;-75
2022/11/02 11:22:34;;;;;;;12.07;3.60;;;26.60;99.90;;;;;;5041139;28;20580;-75
2022/11/02 11:25:20;;;;;;;7.90;3.53;;;26.50;99.90;;;;;;5053236;28;20025;-76
2022/11/02 11:27:57;;;;;;;10.75;3.58;;;26.50;99.90;;;;;;5052952;28;20025;-75
2022/11/02 11:30:36;;;;;;;7.70;3.45;;;26.60;99.90;;;;;;5053358;28;20140;-76
2022/11/02 11:33:05;;;;;;;10.27;2.97;;;26.50;99.90;;;;;;5053114;28;20032;-75
2022/11/02 11:35:46;;;;;;;8.50;3.50;;;26.70;99.90;;;;;;5052436;28;20037;-75
2022/11/02 11:38:21;;;;;;;9.82;4.05;;;26.80;99.90;;;;;;5052813;28;20043;-75
2022/11/02 11:40:53;;;;;;;9.70;3.30;;;26.80;99.90;;;;;;5052562;28;20033;-76
2022/11/02 11:43:22;;;;;;;9.20;3.50;;;26.70;99.90;;;;;;5051943;28;20029;-75
2022/11/02 11:46:05;;;;;;;11.80;3.63;;;26.70;99.90;;;;;;5052835;28;20099;-76
2022/11/02 11:48:54;;;;;;;7.85;3.10;;;26.70;99.90;;;;;;5052788;28;20048;-75
2022/11/02 11:51:48;;;;;;;11.73;3.40;;;26.90;99.90;;;;;;5050793;28;20042;-76
2022/11/02 11:54:28;;;;;;;12.55;3.65;;;27.00;99.90;;;;;;5052577;28;20222;-76
2022/11/02 11:57:19;;;;;;;17.20;3.67;;;27.00;99.90;;;;;;5052135;28;20056;-76
2022/11/02 11:59:47;;;;;;;11.38;3.60;;;27.00;99.90;;;;;;5050981;28;20049;-75
2022/11/02 12:02:36;;;;;;;10.98;3.47;;;27.10;99.90;;;;;;5052455;28;20052;-76
2022/11/02 12:05:17;;;;;;;10.02;3.60;;;27.20;99.90;;;;;;5051991;28;20035;-76
2022/11/02 12:07:56;;;;;;;11.45;3.33;;;27.10;99.90;;;;;;5052415;28;20031;-75
2022/11/02 12:10:57;;;;;;;11.50;3.40;;;27.20;99.90;;;;;;5052143;28;20399;-75
2022/11/02 12:13:51;;;;;;;13.60;4.03;;;27.10;99.90;;;;;;5051796;28;20075;-76
2022/11/02 12:16:17;;;;;;;9.27;3.35;;;27.30;99.90;;;;;;5052022;28;20167;-75
2022/11/02 12:18:58;;;;;;;9.00;3.60;;;27.20;99.90;;;;;;5051698;28;20063;-75
2022/11/02 12:21:46;;;;;;;8.35;3.58;;;27.10;99.90;;;;;;5052087;28;20049;-75
2022/11/02 12:24:36;;;;;;;7.70;3.30;;;27.10;99.90;;;;;;5051825;28;20377;-76
2022/11/02 12:27:26;;;;;;;14.85;3.72;;;27.20;99.90;;;;;;5052793;28;20070;-76
2022/11/02 12:30:14;;;;;;;10.15;3.65;;;27.20;99.90;;;;;;5052375;28;20059;-77
2022/11/02 12:33:22;;;;;;;10.50;3.53;;;27.30;99.90;;;;;;5052135;28;20029;-75
2022/11/02 12:36:26;;;;;;;10.48;3.95;;;27.40;99.90;;;;;;5029853;28;20045;-77
2022/11/02 12:39:32;;;;;;;12.38;3.33;;;27.40;99.90;;;;;;5030067;28;20104;-77
2022/11/02 12:42:07;;;;;;;7.43;3.10;;;27.30;99.90;;;;;;5024680;28;20485;-75
2022/11/02 12:44:33;;;;;;;10.13;3.20;;;27.40;99.90;;;;;;5030291;28;20036;-76
2022/11/02 12:47:44;;;;;;;10.30;3.38;;;27.40;99.90;;;;;;5030430;28;20037;-77
2022/11/02 12:50:50;;;;;;;5.68;2.63;;;27.20;99.90;;;;;;5029431;28;20539;-75
2022/11/02 12:53:56;;;;;;;10.32;2.72;;;27.30;99.90;;;;;;5012842;28;20096;-75
2022/11/02 12:56:37;;;;;;;6.32;2.80;;;27.30;99.90;;;;;;5029737;28;20049;-78
2022/11/02 12:59:04;;;;;;;9.88;2.83;;;27.30;99.90;;;;;;5030337;28;20091;-77
2022/11/02 13:01:36;;;;;;;6.80;2.70;;;27.20;99.90;;;;;;5013280;28;20029;-78
2022/11/02 13:04:22;;;;;;;9.65;2.55;;;27.30;99.90;;;;;;5013545;28;20032;-76
2022/11/02 13:06:57;;;;;;;8.27;2.35;;;27.40;99.60;;;;;;5030167;28;20463;-78
2022/11/02 13:09:32;;;;;;;6.43;2.40;;;27.40;98.80;;;;;;5013445;28;20087;-78
2022/11/02 13:12:04;;;;;;;8.13;2.92;;;27.40;99.90;;;;;;5036498;28;20080;-77
2022/11/02 13:14:40;;;;;;;11.15;2.78;;;27.20;99.90;;;;;;5050546;28;20060;-77
2022/11/02 13:17:36;;;;;;;7.13;2.63;;;27.00;99.90;;;;;;5050959;28;20035;-76
2022/11/02 13:20:31;;;;;;;13.10;3.15;;;27.00;99.90;;;;;;5046995;28;20330;-76
2022/11/02 13:23:11;;;;;;;6.78;2.70;;;27.10;99.90;;;;;;5030178;28;20038;-77
2022/11/02 13:25:51;;;;;;;11.27;3.53;;;27.30;99.90;;;;;;5030911;28;20033;-77
2022/11/02 13:28:42;;;;;;;14.75;4.20;;;27.30;99.90;;;;;;5030637;28;20034;-77
2022/11/02 13:31:20;;;;;;;11.77;3.60;;;27.40;99.90;;;;;;5044971;28;20213;-74
2022/11/02 13:33:49;;;;;;;11.90;3.58;;;27.40;99.90;;;;;;5050130;28;20132;-76